sensor_id;sensor_type;location;lat;lon;timestamp;P1;durP1;ratioP1;P2;durP2;ratioP2
17727;SDS011;8984;49.268;12.302;2023-09-12T00:01:28;14.88;;;11.02;;
17727;SDS011;8984;49.268;12.302;2023-09-12T00:04:05;14.07;;;10.50;;
17727;SDS011;8984;49.268;12.302;2023-09-12T00:06:41;11.02;;;10.02;;
17727;SDS011;8984;49.268;12.302;2023-09-12T00:09:13;12.88;;;10.20;;
17727;SDS011;8984;49.268;12.302;2023-09-12T00:11:45;13.57;;;10.43;;
17727;SDS011;8984;49.268;12.302;2023-09-12T00:14:17;10.88;;;9.77;;
17727;SDS011;8984;49.268;12.302;2023-09-12T00:16:51;11.48;;;10.38;;
17727;SDS011;8984;49.268;12.302;2023-09-12T00:19:26;11.45;;;9.40;;
17727;SDS011;8984;49.268;12.302;2023-09-12T00:21:54;13.30;;;10.55;;
17727;SDS011;8984;49.268;12.302;2023-09-12T00:24:21;12.27;;;10.27;;
17727;SDS011;8984;49.268;12.302;2023-09-12T00:26:50;13.25;;;10.65;;
17727;SDS011;8984;49.268;12.302;2023-09-12T00:29:18;13.07;;;10.55;;
17727;SDS011;8984;49.268;12.302;2023-09-12T00:31:51;14.77;;;10.95;;
17727;SDS011;8984;49.268;12.302;2023-09-12T00:34:31;13.40;;;10.30;;
17727;SDS011;8984;49.268;12.302;2023-09-12T00:37:02;10.82;;;9.68;;
17727;SDS011;8984;49.268;12.302;2023-09-12T00:39:31;13.48;;;10.88;;
17727;SDS011;8984;49.268;12.302;2023-09-12T00:41:59;11.68;;;9.93;;
17727;SDS011;8984;49.268;12.302;2023-09-12T00:44:34;12.45;;;11.25;;
17727;SDS011;8984;49.268;12.302;2023-09-12T00:47:03;11.18;;;10.13;;
17727;SDS011;8984;49.268;12.302;2023-09-12T00:49:39;12.93;;;9.70;;
17727;SDS011;8984;49.268;12.302;2023-09-12T00:52:25;12.98;;;10.85;;
17727;SDS011;8984;49.268;12.302;2023-09-12T00:54:54;11.20;;;10.07;;
17727;SDS011;8984;49.268;12.302;2023-09-12T00:57:26;12.20;;;10.30;;
17727;SDS011;8984;49.268;12.302;2023-09-12T01:00:01;12.65;;;10.43;;
17727;SDS011;8984;49.268;12.302;2023-09-12T01:02:48;11.15;;;9.10;;
17727;SDS011;8984;49.268;12.302;2023-09-12T01:05:19;11.40;;;10.23;;
17727;SDS011;8984;49.268;12.302;2023-09-12T01:07:51;10.38;;;9.38;;
17727;SDS011;8984;49.268;12.302;2023-09-12T01:10:21;11.90;;;10.80;;
17727;SDS011;8984;49.268;12.302;2023-09-12T01:12:50;11.27;;;10.15;;
17727;SDS011;8984;49.268;12.302;2023-09-12T01:15:21;11.35;;;10.20;;
17727;SDS011;8984;49.268;12.302;2023-09-12T01:17:52;11.25;;;10.13;;
17727;SDS011;8984;49.268;12.302;2023-09-12T01:20:27;13.25;;;10.70;;
17727;SDS011;8984;49.268;12.302;2023-09-12T01:23:08;11.73;;;10.30;;
17727;SDS011;8984;49.268;12.302;2023-09-12T01:25:55;11.45;;;10.25;;
17727;SDS011;8984;49.268;12.302;2023-09-12T01:28:56;11.60;;;10.50;;
17727;SDS011;8984;49.268;12.302;2023-09-12T01:31:24;12.37;;;10.87;;
17727;SDS011;8984;49.268;12.302;2023-09-12T01:34:07;14.37;;;11.20;;
17727;SDS011;8984;49.268;12.302;2023-09-12T01:36:41;13.00;;;10.77;;
17727;SDS011;8984;49.268;12.302;2023-09-12T01:39:09;12.53;;;11.23;;
17727;SDS011;8984;49.268;12.302;2023-09-12T01:41:41;10.70;;;9.60;;
17727;SDS011;8984;49.268;12.302;2023-09-12T01:44:17;11.90;;;10.70;;
17727;SDS011;8984;49.268;12.302;2023-09-12T01:46:48;11.70;;;10.50;;
17727;SDS011;8984;49.268;12.302;2023-09-12T01:49:19;11.97;;;10.77;;
17727;SDS011;8984;49.268;12.302;2023-09-12T01:51:49;15.70;;;11.70;;
17727;SDS011;8984;49.268;12.302;2023-09-12T01:54:18;12.33;;;9.60;;
17727;SDS011;8984;49.268;12.302;2023-09-12T01:56:46;11.90;;;10.73;;
17727;SDS011;8984;49.268;12.302;2023-09-12T01:59:16;11.20;;;9.97;;
17727;SDS011;8984;49.268;12.302;2023-09-12T02:01:45;13.37;;;10.53;;
17727;SDS011;8984;49.268;12.302;2023-09-12T02:04:15;10.73;;;9.73;;
17727;SDS011;8984;49.268;12.302;2023-09-12T02:06:48;10.87;;;9.77;;
17727;SDS011;8984;49.268;12.302;2023-09-12T02:09:16;11.47;;;10.10;;
17727;SDS011;8984;49.268;12.302;2023-09-12T02:11:48;13.27;;;10.40;;
17727;SDS011;8984;49.268;12.302;2023-09-12T02:14:32;13.03;;;10.27;;
17727;SDS011;8984;49.268;12.302;2023-09-12T02:16:59;10.67;;;9.63;;
17727;SDS011;8984;49.268;12.302;2023-09-12T02:19:28;11.20;;;10.00;;
17727;SDS011;8984;49.268;12.302;2023-09-12T02:21:56;11.77;;;10.67;;
17727;SDS011;8984;49.268;12.302;2023-09-12T02:24:25;10.73;;;9.63;;
17727;SDS011;8984;49.268;12.302;2023-09-12T02:27:06;11.47;;;10.33;;
17727;SDS011;8984;49.268;12.302;2023-09-12T02:29:53;10.87;;;9.77;;
17727;SDS011;8984;49.268;12.302;2023-09-12T02:32:22;16.37;;;11.80;;
17727;SDS011;8984;49.268;12.302;2023-09-12T02:34:51;12.50;;;11.20;;
17727;SDS011;8984;49.268;12.302;2023-09-12T02:37:22;13.73;;;11.27;;
17727;SDS011;8984;49.268;12.302;2023-09-12T02:40:00;11.97;;;10.87;;
17727;SDS011;8984;49.268;12.302;2023-09-12T02:42:32;11.90;;;10.73;;
17727;SDS011;8984;49.268;12.302;2023-09-12T02:45:11;12.30;;;11.00;;
17727;SDS011;8984;49.268;12.302;2023-09-12T02:47:39;13.00;;;10.20;;
17727;SDS011;8984;49.268;12.302;2023-09-12T02:50:08;10.13;;;9.17;;
17727;SDS011;8984;49.268;12.302;2023-09-12T02:52:37;12.03;;;10.83;;
17727;SDS011;8984;49.268;12.302;2023-09-12T02:55:16;11.33;;;10.20;;
17727;SDS011;8984;49.268;12.302;2023-09-12T02:57:49;11.60;;;10.40;;
17727;SDS011;8984;49.268;12.302;2023-09-12T03:00:22;11.63;;;10.10;;
17727;SDS011;8984;49.268;12.302;2023-09-12T03:02:55;13.53;;;10.30;;
17727;SDS011;8984;49.268;12.302;2023-09-12T03:05:36;11.93;;;10.43;;
17727;SDS011;8984;49.268;12.302;2023-09-12T03:08:09;11.83;;;9.90;;
17727;SDS011;8984;49.268;12.302;2023-09-12T03:10:52;11.47;;;10.30;;
17727;SDS011;8984;49.268;12.302;2023-09-12T03:15:58;10.73;;;9.60;;
17727;SDS011;8984;49.268;12.302;2023-09-12T03:18:32;11.57;;;10.37;;
17727;SDS011;8984;49.268;12.302;2023-09-12T03:21:00;11.60;;;10.47;;
17727;SDS011;8984;49.268;12.302;2023-09-12T03:23:29;11.60;;;10.13;;
17727;SDS011;8984;49.268;12.302;2023-09-12T03:26:03;13.17;;;10.30;;
17727;SDS011;8984;49.268;12.302;2023-09-12T03:29:26;11.33;;;9.93;;
17727;SDS011;8984;49.268;12.302;2023-09-12T03:31:55;11.73;;;10.50;;
17727;SDS011;8984;49.268;12.302;2023-09-12T03:34:38;12.67;;;11.33;;
17727;SDS011;8984;49.268;12.302;2023-09-12T03:37:05;13.03;;;10.27;;
17727;SDS011;8984;49.268;12.302;2023-09-12T03:39:34;11.23;;;10.00;;
17727;SDS011;8984;49.268;12.302;2023-09-12T03:42:13;12.90;;;10.93;;
17727;SDS011;8984;49.268;12.302;2023-09-12T03:45:00;12.53;;;10.50;;
17727;SDS011;8984;49.268;12.302;2023-09-12T03:50:52;15.50;;;9.67;;
17727;SDS011;8984;49.268;12.302;2023-09-12T03:53:28;12.10;;;10.90;;
17727;SDS011;8984;49.268;12.302;2023-09-12T03:55:59;11.53;;;10.27;;
17727;SDS011;8984;49.268;12.302;2023-09-12T03:58:42;11.90;;;9.83;;
17727;SDS011;8984;49.268;12.302;2023-09-12T04:01:12;11.40;;;9.33;;
17727;SDS011;8984;49.268;12.302;2023-09-12T04:03:50;11.83;;;10.63;;
17727;SDS011;8984;49.268;12.302;2023-09-12T04:06:19;12.20;;;10.30;;
17727;SDS011;8984;49.268;12.302;2023-09-12T04:08:47;11.20;;;9.97;;
17727;SDS011;8984;49.268;12.302;2023-09-12T04:11:15;10.50;;;9.53;;
17727;SDS011;8984;49.268;12.302;2023-09-12T04:13:42;11.40;;;10.13;;
17727;SDS011;8984;49.268;12.302;2023-09-12T04:16:12;13.07;;;10.83;;
17727;SDS011;8984;49.268;12.302;2023-09-12T04:18:39;12.00;;;10.80;;
17727;SDS011;8984;49.268;12.302;2023-09-12T04:21:12;11.13;;;10.03;;
17727;SDS011;8984;49.268;12.302;2023-09-12T04:23:44;11.77;;;9.57;;
17727;SDS011;8984;49.268;12.302;2023-09-12T04:26:16;12.10;;;11.00;;
17727;SDS011;8984;49.268;12.302;2023-09-12T04:28:53;11.87;;;10.53;;
17727;SDS011;8984;49.268;12.302;2023-09-12T04:31:22;11.73;;;10.53;;
17727;SDS011;8984;49.268;12.302;2023-09-12T04:33:54;12.13;;;10.37;;
17727;SDS011;8984;49.268;12.302;2023-09-12T04:36:35;14.13;;;10.40;;
17727;SDS011;8984;49.268;12.302;2023-09-12T04:39:04;10.97;;;9.87;;
17727;SDS011;8984;49.268;12.302;2023-09-12T04:41:32;13.83;;;10.73;;
17727;SDS011;8984;49.268;12.302;2023-09-12T04:44:00;13.30;;;10.80;;
17727;SDS011;8984;49.268;12.302;2023-09-12T04:46:33;11.57;;;9.50;;
17727;SDS011;8984;49.268;12.302;2023-09-12T04:49:02;12.20;;;9.47;;
17727;SDS011;8984;49.268;12.302;2023-09-12T04:51:31;15.97;;;10.80;;
17727;SDS011;8984;49.268;12.302;2023-09-12T04:54:09;54.93;;;30.43;;
17727;SDS011;8984;49.268;12.302;2023-09-12T04:56:36;121.57;;;55.67;;
17727;SDS011;8984;49.268;12.302;2023-09-12T04:59:08;34.17;;;20.90;;
17727;SDS011;8984;49.268;12.302;2023-09-12T05:01:38;39.70;;;23.40;;
17727;SDS011;8984;49.268;12.302;2023-09-12T05:04:05;19.33;;;13.30;;
17727;SDS011;8984;49.268;12.302;2023-09-12T05:06:38;13.53;;;11.50;;
17727;SDS011;8984;49.268;12.302;2023-09-12T05:09:19;14.83;;;11.03;;
17727;SDS011;8984;49.268;12.302;2023-09-12T05:12:10;12.97;;;10.87;;
17727;SDS011;8984;49.268;12.302;2023-09-12T05:14:38;14.73;;;12.73;;
17727;SDS011;8984;49.268;12.302;2023-09-12T05:17:07;14.37;;;11.50;;
17727;SDS011;8984;49.268;12.302;2023-09-12T05:19:34;18.40;;;12.20;;
17727;SDS011;8984;49.268;12.302;2023-09-12T05:22:02;12.67;;;11.30;;
17727;SDS011;8984;49.268;12.302;2023-09-12T05:24:29;12.17;;;10.33;;
17727;SDS011;8984;49.268;12.302;2023-09-12T05:26:56;12.37;;;10.80;;
17727;SDS011;8984;49.268;12.302;2023-09-12T05:29:23;14.50;;;10.00;;
17727;SDS011;8984;49.268;12.302;2023-09-12T05:31:50;18.60;;;11.50;;
17727;SDS011;8984;49.268;12.302;2023-09-12T05:34:17;13.30;;;11.07;;
17727;SDS011;8984;49.268;12.302;2023-09-12T05:36:44;11.38;;;10.13;;
17727;SDS011;8984;49.268;12.302;2023-09-12T05:39:12;13.20;;;9.98;;
17727;SDS011;8984;49.268;12.302;2023-09-12T05:41:45;12.98;;;9.38;;
17727;SDS011;8984;49.268;12.302;2023-09-12T05:44:17;15.23;;;10.43;;
17727;SDS011;8984;49.268;12.302;2023-09-12T05:46:52;13.98;;;11.35;;
17727;SDS011;8984;49.268;12.302;2023-09-12T05:49:22;14.45;;;10.27;;
17727;SDS011;8984;49.268;12.302;2023-09-12T05:52:02;10.27;;;9.15;;
17727;SDS011;8984;49.268;12.302;2023-09-12T05:54:47;11.15;;;9.88;;
17727;SDS011;8984;49.268;12.302;2023-09-12T05:57:16;10.55;;;8.32;;
17727;SDS011;8984;49.268;12.302;2023-09-12T05:59:45;10.10;;;8.70;;
17727;SDS011;8984;49.268;12.302;2023-09-12T06:02:28;14.50;;;9.43;;
17727;SDS011;8984;49.268;12.302;2023-09-12T06:05:05;11.38;;;9.18;;
17727;SDS011;8984;49.268;12.302;2023-09-12T06:07:38;10.40;;;8.57;;
17727;SDS011;8984;49.268;12.302;2023-09-12T06:10:24;8.80;;;7.90;;
17727;SDS011;8984;49.268;12.302;2023-09-12T06:12:51;13.05;;;9.23;;
17727;SDS011;8984;49.268;12.302;2023-09-12T06:15:23;12.93;;;8.77;;
17727;SDS011;8984;49.268;12.302;2023-09-12T06:18:05;9.77;;;8.77;;
17727;SDS011;8984;49.268;12.302;2023-09-12T06:20:34;12.15;;;8.23;;
17727;SDS011;8984;49.268;12.302;2023-09-12T06:23:02;9.55;;;8.55;;
17727;SDS011;8984;49.268;12.302;2023-09-12T06:25:41;9.65;;;8.65;;
17727;SDS011;8984;49.268;12.302;2023-09-12T06:28:09;9.43;;;8.05;;
17727;SDS011;8984;49.268;12.302;2023-09-12T06:30:57;10.88;;;7.97;;
17727;SDS011;8984;49.268;12.302;2023-09-12T06:33:33;9.43;;;8.10;;
17727;SDS011;8984;49.268;12.302;2023-09-12T06:36:10;12.20;;;8.40;;
17727;SDS011;8984;49.268;12.302;2023-09-12T06:38:41;10.05;;;8.35;;
17727;SDS011;8984;49.268;12.302;2023-09-12T06:46:54;10.20;;;9.20;;
17727;SDS011;8984;49.268;12.302;2023-09-12T06:49:22;11.60;;;9.48;;
17727;SDS011;8984;49.268;12.302;2023-09-12T06:51:52;13.25;;;9.73;;
17727;SDS011;8984;49.268;12.302;2023-09-12T06:54:22;10.02;;;9.10;;
17727;SDS011;8984;49.268;12.302;2023-09-12T06:56:54;10.75;;;8.50;;
17727;SDS011;8984;49.268;12.302;2023-09-12T06:59:25;9.60;;;8.70;;
17727;SDS011;8984;49.268;12.302;2023-09-12T07:01:56;10.07;;;8.48;;
17727;SDS011;8984;49.268;12.302;2023-09-12T07:04:27;11.15;;;8.73;;
17727;SDS011;8984;49.268;12.302;2023-09-12T07:06:56;9.75;;;8.75;;
17727;SDS011;8984;49.268;12.302;2023-09-12T07:09:42;12.05;;;8.48;;
17727;SDS011;8984;49.268;12.302;2023-09-12T07:12:19;10.30;;;9.20;;
17727;SDS011;8984;49.268;12.302;2023-09-12T07:14:53;9.23;;;8.32;;
17727;SDS011;8984;49.268;12.302;2023-09-12T07:17:27;10.32;;;8.82;;
17727;SDS011;8984;49.268;12.302;2023-09-12T07:20:01;8.98;;;8.07;;
17727;SDS011;8984;49.268;12.302;2023-09-12T07:22:41;9.85;;;8.07;;
17727;SDS011;8984;49.268;12.302;2023-09-12T07:25:10;9.13;;;8.23;;
17727;SDS011;8984;49.268;12.302;2023-09-12T07:27:45;8.52;;;7.57;;
17727;SDS011;8984;49.268;12.302;2023-09-12T07:30:16;8.63;;;7.78;;
17727;SDS011;8984;49.268;12.302;2023-09-12T07:32:45;10.20;;;8.13;;
17727;SDS011;8984;49.268;12.302;2023-09-12T07:35:26;8.30;;;7.50;;
17727;SDS011;8984;49.268;12.302;2023-09-12T07:37:56;8.02;;;7.28;;
17727;SDS011;8984;49.268;12.302;2023-09-12T07:40:27;8.35;;;7.47;;
17727;SDS011;8984;49.268;12.302;2023-09-12T07:42:56;11.00;;;8.02;;
17727;SDS011;8984;49.268;12.302;2023-09-12T07:45:43;8.35;;;7.55;;
17727;SDS011;8984;49.268;12.302;2023-09-12T07:48:16;8.38;;;7.47;;
17727;SDS011;8984;49.268;12.302;2023-09-12T07:50:53;11.32;;;7.13;;
17727;SDS011;8984;49.268;12.302;2023-09-12T07:53:32;8.77;;;7.55;;
17727;SDS011;8984;49.268;12.302;2023-09-12T07:56:03;7.47;;;6.60;;
17727;SDS011;8984;49.268;12.302;2023-09-12T07:58:48;14.00;;;8.00;;
17727;SDS011;8984;49.268;12.302;2023-09-12T08:01:21;8.93;;;8.00;;
17727;SDS011;8984;49.268;12.302;2023-09-12T08:03:49;9.07;;;7.97;;
17727;SDS011;8984;49.268;12.302;2023-09-12T08:06:36;9.30;;;7.28;;
17727;SDS011;8984;49.268;12.302;2023-09-12T08:12:36;9.75;;;6.82;;
17727;SDS011;8984;49.268;12.302;2023-09-12T08:15:40;8.55;;;7.30;;
17727;SDS011;8984;49.268;12.302;2023-09-12T08:18:29;9.98;;;7.72;;
17727;SDS011;8984;49.268;12.302;2023-09-12T08:20:59;8.98;;;8.00;;
17727;SDS011;8984;49.268;12.302;2023-09-12T08:23:31;8.95;;;7.72;;
17727;SDS011;8984;49.268;12.302;2023-09-12T08:26:04;8.15;;;7.43;;
17727;SDS011;8984;49.268;12.302;2023-09-12T08:28:36;9.13;;;7.35;;
17727;SDS011;8984;49.268;12.302;2023-09-12T08:31:04;11.55;;;7.80;;
17727;SDS011;8984;49.268;12.302;2023-09-12T08:33:41;10.90;;;8.27;;
17727;SDS011;8984;49.268;12.302;2023-09-12T08:36:10;9.93;;;8.35;;
17727;SDS011;8984;49.268;12.302;2023-09-12T08:38:43;8.65;;;7.50;;
17727;SDS011;8984;49.268;12.302;2023-09-12T08:41:25;8.45;;;7.43;;
17727;SDS011;8984;49.268;12.302;2023-09-12T08:43:52;8.77;;;7.88;;
17727;SDS011;8984;49.268;12.302;2023-09-12T08:46:20;8.40;;;7.32;;
17727;SDS011;8984;49.268;12.302;2023-09-12T08:48:50;7.57;;;6.75;;
17727;SDS011;8984;49.268;12.302;2023-09-12T08:51:18;9.40;;;7.43;;
17727;SDS011;8984;49.268;12.302;2023-09-12T08:53:45;10.18;;;8.40;;
17727;SDS011;8984;49.268;12.302;2023-09-12T08:56:12;11.30;;;8.82;;
17727;SDS011;8984;49.268;12.302;2023-09-12T08:58:39;11.65;;;9.00;;
17727;SDS011;8984;49.268;12.302;2023-09-12T09:01:06;10.00;;;8.93;;
17727;SDS011;8984;49.268;12.302;2023-09-12T09:03:36;11.02;;;8.90;;
17727;SDS011;8984;49.268;12.302;2023-09-12T09:06:05;12.50;;;9.45;;
17727;SDS011;8984;49.268;12.302;2023-09-12T09:08:32;10.35;;;8.57;;
17727;SDS011;8984;49.268;12.302;2023-09-12T09:11:00;10.30;;;8.13;;
17727;SDS011;8984;49.268;12.302;2023-09-12T09:13:28;10.07;;;8.68;;
17727;SDS011;8984;49.268;12.302;2023-09-12T09:16:12;8.95;;;8.15;;
17727;SDS011;8984;49.268;12.302;2023-09-12T09:18:49;10.10;;;7.95;;
17727;SDS011;8984;49.268;12.302;2023-09-12T09:21:18;10.45;;;7.63;;
17727;SDS011;8984;49.268;12.302;2023-09-12T09:23:49;9.65;;;7.57;;
17727;SDS011;8984;49.268;12.302;2023-09-12T09:26:17;9.10;;;7.40;;
17727;SDS011;8984;49.268;12.302;2023-09-12T09:28:44;12.20;;;7.28;;
17727;SDS011;8984;49.268;12.302;2023-09-12T09:31:11;9.18;;;7.50;;
17727;SDS011;8984;49.268;12.302;2023-09-12T09:33:39;9.02;;;6.75;;
17727;SDS011;8984;49.268;12.302;2023-09-12T09:36:10;8.70;;;7.60;;
17727;SDS011;8984;49.268;12.302;2023-09-12T09:38:39;10.70;;;6.50;;
17727;SDS011;8984;49.268;12.302;2023-09-12T09:41:07;13.18;;;7.65;;
17727;SDS011;8984;49.268;12.302;2023-09-12T09:43:34;8.63;;;7.75;;
17727;SDS011;8984;49.268;12.302;2023-09-12T09:46:00;8.75;;;7.07;;
17727;SDS011;8984;49.268;12.302;2023-09-12T09:48:29;8.88;;;5.90;;
17727;SDS011;8984;49.268;12.302;2023-09-12T09:50:59;11.27;;;6.90;;
17727;SDS011;8984;49.268;12.302;2023-09-12T09:53:27;8.48;;;6.85;;
17727;SDS011;8984;49.268;12.302;2023-09-12T09:56:09;7.35;;;6.55;;
17727;SDS011;8984;49.268;12.302;2023-09-12T09:58:36;8.80;;;7.07;;
17727;SDS011;8984;49.268;12.302;2023-09-12T10:01:08;7.68;;;6.88;;
17727;SDS011;8984;49.268;12.302;2023-09-12T10:03:37;7.20;;;6.50;;
17727;SDS011;8984;49.268;12.302;2023-09-12T10:06:04;11.90;;;7.25;;
17727;SDS011;8984;49.268;12.302;2023-09-12T10:08:32;8.68;;;6.82;;
17727;SDS011;8984;49.268;12.302;2023-09-12T10:11:00;8.55;;;6.05;;
17727;SDS011;8984;49.268;12.302;2023-09-12T10:13:29;9.50;;;6.57;;
17727;SDS011;8984;49.268;12.302;2023-09-12T10:15:58;7.57;;;6.05;;
17727;SDS011;8984;49.268;12.302;2023-09-12T10:18:26;8.32;;;6.70;;
17727;SDS011;8984;49.268;12.302;2023-09-12T10:20:58;14.02;;;6.95;;
17727;SDS011;8984;49.268;12.302;2023-09-12T10:23:37;7.47;;;6.72;;
17727;SDS011;8984;49.268;12.302;2023-09-12T10:26:09;11.52;;;7.22;;
17727;SDS011;8984;49.268;12.302;2023-09-12T10:28:39;9.90;;;6.85;;
17727;SDS011;8984;49.268;12.302;2023-09-12T10:31:07;7.00;;;6.30;;
17727;SDS011;8984;49.268;12.302;2023-09-12T10:33:36;6.90;;;6.15;;
17727;SDS011;8984;49.268;12.302;2023-09-12T10:36:04;9.60;;;6.63;;
17727;SDS011;8984;49.268;12.302;2023-09-12T10:38:33;9.30;;;5.90;;
17727;SDS011;8984;49.268;12.302;2023-09-12T10:41:06;6.47;;;5.88;;
17727;SDS011;8984;49.268;12.302;2023-09-12T10:43:35;7.85;;;6.00;;
17727;SDS011;8984;49.268;12.302;2023-09-12T10:46:04;6.63;;;5.85;;
17727;SDS011;8984;49.268;12.302;2023-09-12T10:48:32;12.77;;;6.05;;
17727;SDS011;8984;49.268;12.302;2023-09-12T10:51:00;7.50;;;5.90;;
17727;SDS011;8984;49.268;12.302;2023-09-12T10:53:28;7.78;;;5.75;;
17727;SDS011;8984;49.268;12.302;2023-09-12T10:55:58;17.75;;;6.90;;
17727;SDS011;8984;49.268;12.302;2023-09-12T10:58:26;7.95;;;5.93;;
17727;SDS011;8984;49.268;12.302;2023-09-12T11:03:53;7.18;;;5.30;;
17727;SDS011;8984;49.268;12.302;2023-09-12T11:06:20;5.78;;;5.20;;
17727;SDS011;8984;49.268;12.302;2023-09-12T11:11:45;7.28;;;5.47;;
17727;SDS011;8984;49.268;12.302;2023-09-12T11:14:13;7.70;;;5.80;;
17727;SDS011;8984;49.268;12.302;2023-09-12T11:16:43;7.57;;;5.25;;
17727;SDS011;8984;49.268;12.302;2023-09-12T11:19:29;5.72;;;5.18;;
17727;SDS011;8984;49.268;12.302;2023-09-12T11:22:20;7.53;;;5.40;;
17727;SDS011;8984;49.268;12.302;2023-09-12T11:24:48;6.05;;;5.45;;
17727;SDS011;8984;49.268;12.302;2023-09-12T11:27:15;6.63;;;5.07;;
17727;SDS011;8984;49.268;12.302;2023-09-12T11:29:42;6.88;;;5.10;;
17727;SDS011;8984;49.268;12.302;2023-09-12T11:32:10;6.38;;;4.85;;
17727;SDS011;8984;49.268;12.302;2023-09-12T11:34:52;6.18;;;4.88;;
17727;SDS011;8984;49.268;12.302;2023-09-12T11:37:25;7.38;;;5.40;;
17727;SDS011;8984;49.268;12.302;2023-09-12T11:39:53;7.00;;;5.13;;
17727;SDS011;8984;49.268;12.302;2023-09-12T11:42:22;7.05;;;5.07;;
17727;SDS011;8984;49.268;12.302;2023-09-12T11:44:50;7.85;;;5.55;;
17727;SDS011;8984;49.268;12.302;2023-09-12T11:47:19;9.18;;;5.40;;
17727;SDS011;8984;49.268;12.302;2023-09-12T11:49:46;5.53;;;5.03;;
17727;SDS011;8984;49.268;12.302;2023-09-12T11:52:15;5.90;;;5.28;;
17727;SDS011;8984;49.268;12.302;2023-09-12T11:54:42;5.30;;;4.80;;
17727;SDS011;8984;49.268;12.302;2023-09-12T11:57:12;7.20;;;5.20;;
17727;SDS011;8984;49.268;12.302;2023-09-12T11:59:40;7.88;;;5.18;;
17727;SDS011;8984;49.268;12.302;2023-09-12T12:02:09;5.90;;;5.30;;
17727;SDS011;8984;49.268;12.302;2023-09-12T12:04:38;5.85;;;5.05;;
17727;SDS011;8984;49.268;12.302;2023-09-12T12:07:05;7.20;;;5.20;;
17727;SDS011;8984;49.268;12.302;2023-09-12T12:09:33;8.88;;;5.30;;
17727;SDS011;8984;49.268;12.302;2023-09-12T12:12:04;6.50;;;5.20;;
17727;SDS011;8984;49.268;12.302;2023-09-12T12:14:35;8.25;;;5.93;;
17727;SDS011;8984;49.268;12.302;2023-09-12T12:17:06;6.72;;;5.10;;
17727;SDS011;8984;49.268;12.302;2023-09-12T12:19:34;9.43;;;5.47;;
17727;SDS011;8984;49.268;12.302;2023-09-12T12:22:03;11.40;;;5.82;;
17727;SDS011;8984;49.268;12.302;2023-09-12T12:24:39;8.88;;;5.53;;
17727;SDS011;8984;49.268;12.302;2023-09-12T12:27:06;7.60;;;5.53;;
17727;SDS011;8984;49.268;12.302;2023-09-12T12:29:35;6.93;;;5.65;;
17727;SDS011;8984;49.268;12.302;2023-09-12T12:32:04;7.38;;;5.13;;
17727;SDS011;8984;49.268;12.302;2023-09-12T12:34:34;9.88;;;5.68;;
17727;SDS011;8984;49.268;12.302;2023-09-12T12:37:00;5.85;;;5.25;;
17727;SDS011;8984;49.268;12.302;2023-09-12T12:39:29;5.85;;;5.20;;
17727;SDS011;8984;49.268;12.302;2023-09-12T12:41:57;7.70;;;5.75;;
17727;SDS011;8984;49.268;12.302;2023-09-12T12:44:32;5.97;;;5.38;;
17727;SDS011;8984;49.268;12.302;2023-09-12T12:47:03;8.02;;;6.60;;
17727;SDS011;8984;49.268;12.302;2023-09-12T12:49:35;8.00;;;6.15;;
17727;SDS011;8984;49.268;12.302;2023-09-12T12:52:05;8.27;;;5.40;;
17727;SDS011;8984;49.268;12.302;2023-09-12T12:54:32;8.60;;;6.00;;
17727;SDS011;8984;49.268;12.302;2023-09-12T12:56:59;7.38;;;5.40;;
17727;SDS011;8984;49.268;12.302;2023-09-12T12:59:26;6.55;;;5.20;;
17727;SDS011;8984;49.268;12.302;2023-09-12T13:01:54;6.65;;;5.40;;
17727;SDS011;8984;49.268;12.302;2023-09-12T13:04:23;8.60;;;5.43;;
17727;SDS011;8984;49.268;12.302;2023-09-12T13:06:50;10.63;;;5.78;;
17727;SDS011;8984;49.268;12.302;2023-09-12T13:09:18;8.82;;;5.35;;
17727;SDS011;8984;49.268;12.302;2023-09-12T13:11:45;13.90;;;5.88;;
17727;SDS011;8984;49.268;12.302;2023-09-12T13:14:12;7.82;;;5.47;;
17727;SDS011;8984;49.268;12.302;2023-09-12T13:16:39;8.05;;;6.00;;
17727;SDS011;8984;49.268;12.302;2023-09-12T13:19:06;6.68;;;5.82;;
17727;SDS011;8984;49.268;12.302;2023-09-12T13:21:33;9.05;;;5.75;;
17727;SDS011;8984;49.268;12.302;2023-09-12T13:24:00;7.63;;;6.13;;
17727;SDS011;8984;49.268;12.302;2023-09-12T13:26:28;7.38;;;5.40;;
17727;SDS011;8984;49.268;12.302;2023-09-12T13:28:56;6.97;;;6.07;;
17727;SDS011;8984;49.268;12.302;2023-09-12T13:31:23;7.93;;;6.15;;
17727;SDS011;8984;49.268;12.302;2023-09-12T13:33:50;8.48;;;5.60;;
17727;SDS011;8984;49.268;12.302;2023-09-12T13:36:17;7.07;;;6.10;;
17727;SDS011;8984;49.268;12.302;2023-09-12T13:38:44;6.93;;;6.20;;
17727;SDS011;8984;49.268;12.302;2023-09-12T13:41:12;6.60;;;5.93;;
17727;SDS011;8984;49.268;12.302;2023-09-12T13:43:40;16.02;;;6.20;;
17727;SDS011;8984;49.268;12.302;2023-09-12T13:46:10;7.97;;;5.93;;
17727;SDS011;8984;49.268;12.302;2023-09-12T13:48:39;6.15;;;5.45;;
17727;SDS011;8984;49.268;12.302;2023-09-12T13:51:06;9.35;;;6.25;;
17727;SDS011;8984;49.268;12.302;2023-09-12T13:53:33;7.50;;;6.38;;
17727;SDS011;8984;49.268;12.302;2023-09-12T13:56:00;6.57;;;5.88;;
17727;SDS011;8984;49.268;12.302;2023-09-12T13:58:27;8.85;;;6.95;;
17727;SDS011;8984;49.268;12.302;2023-09-12T14:00:55;6.65;;;5.80;;
17727;SDS011;8984;49.268;12.302;2023-09-12T14:03:22;6.85;;;6.22;;
17727;SDS011;8984;49.268;12.302;2023-09-12T14:05:49;7.35;;;6.30;;
17727;SDS011;8984;49.268;12.302;2023-09-12T14:08:16;6.82;;;6.10;;
17727;SDS011;8984;49.268;12.302;2023-09-12T14:10:43;6.82;;;6.03;;
17727;SDS011;8984;49.268;12.302;2023-09-12T14:13:09;10.25;;;6.43;;
17727;SDS011;8984;49.268;12.302;2023-09-12T14:15:36;11.20;;;6.18;;
17727;SDS011;8984;49.268;12.302;2023-09-12T14:18:05;10.63;;;6.30;;
17727;SDS011;8984;49.268;12.302;2023-09-12T14:20:31;11.32;;;7.13;;
17727;SDS011;8984;49.268;12.302;2023-09-12T14:22:58;13.00;;;6.60;;
17727;SDS011;8984;49.268;12.302;2023-09-12T14:25:26;10.00;;;6.28;;
17727;SDS011;8984;49.268;12.302;2023-09-12T14:27:53;8.05;;;6.40;;
17727;SDS011;8984;49.268;12.302;2023-09-12T14:30:20;10.10;;;7.07;;
17727;SDS011;8984;49.268;12.302;2023-09-12T14:32:47;15.95;;;7.07;;
17727;SDS011;8984;49.268;12.302;2023-09-12T14:35:15;7.40;;;6.20;;
17727;SDS011;8984;49.268;12.302;2023-09-12T14:37:42;9.40;;;6.13;;
17727;SDS011;8984;49.268;12.302;2023-09-12T14:40:09;8.48;;;6.78;;
17727;SDS011;8984;49.268;12.302;2023-09-12T14:42:39;7.57;;;6.25;;
17727;SDS011;8984;49.268;12.302;2023-09-12T14:45:06;11.38;;;6.35;;
17727;SDS011;8984;49.268;12.302;2023-09-12T14:47:34;6.97;;;6.28;;
17727;SDS011;8984;49.268;12.302;2023-09-12T14:50:01;12.90;;;6.35;;
17727;SDS011;8984;49.268;12.302;2023-09-12T14:52:29;10.40;;;6.45;;
17727;SDS011;8984;49.268;12.302;2023-09-12T14:54:56;7.60;;;6.22;;
17727;SDS011;8984;49.268;12.302;2023-09-12T14:57:25;6.28;;;5.68;;
17727;SDS011;8984;49.268;12.302;2023-09-12T14:59:52;11.80;;;6.70;;
17727;SDS011;8984;49.268;12.302;2023-09-12T15:02:21;9.55;;;6.50;;
17727;SDS011;8984;49.268;12.302;2023-09-12T15:04:56;7.45;;;6.57;;
17727;SDS011;8984;49.268;12.302;2023-09-12T15:07:27;9.77;;;6.57;;
17727;SDS011;8984;49.268;12.302;2023-09-12T15:10:00;8.20;;;5.57;;
17727;SDS011;8984;49.268;12.302;2023-09-12T15:12:30;8.07;;;6.40;;
17727;SDS011;8984;49.268;12.302;2023-09-12T15:14:59;7.32;;;6.25;;
17727;SDS011;8984;49.268;12.302;2023-09-12T15:17:30;7.10;;;6.30;;
17727;SDS011;8984;49.268;12.302;2023-09-12T15:20:00;7.82;;;5.95;;
17727;SDS011;8984;49.268;12.302;2023-09-12T15:22:30;7.15;;;6.03;;